createdAt,value
2017-06-08T00:02:09.362Z,74.56
2017-06-08T00:04:36.916Z,73.96
2017-06-08T00:07:04.457Z,73.55
2017-06-08T00:09:32.041Z,73.23
2017-06-08T00:11:59.594Z,74.17
2017-06-08T00:14:27.128Z,76.23
2017-06-08T00:16:54.696Z,75.94
2017-06-08T00:19:22.250Z,74.07
2017-06-08T00:21:49.801Z,75.58
2017-06-08T00:24:17.423Z,74.57
2017-06-08T00:26:45.086Z,73.99
2017-06-08T00:29:12.630Z,73.53
2017-06-08T00:31:40.218Z,73.40
2017-06-08T00:34:07.771Z,75.54
2017-06-08T00:36:35.310Z,74.91
2017-06-08T00:39:02.941Z,75.06
2017-06-08T00:41:30.486Z,74.75
2017-06-08T00:43:58.042Z,75.29
2017-06-08T00:46:25.686Z,73.82
2017-06-08T00:48:53.227Z,74.00
2017-06-08T00:51:20.762Z,73.43
2017-06-08T00:53:48.345Z,73.74
2017-06-08T00:56:15.894Z,73.60
2017-06-08T00:58:43.430Z,72.81
2017-06-08T01:01:11.379Z,73.39
2017-06-08T01:03:38.915Z,73.62
2017-06-08T01:06:06.454Z,73.11
2017-06-08T01:08:34.023Z,73.27
2017-06-08T01:11:01.618Z,74.65
2017-06-08T01:13:29.163Z,74.13
2017-06-08T01:15:56.742Z,73.49
2017-06-08T01:18:24.276Z,73.52
2017-06-08T01:20:51.822Z,73.32
2017-06-08T01:23:19.406Z,73.25
2017-06-08T01:25:46.933Z,73.84
2017-06-08T01:28:14.475Z,73.41
2017-06-08T01:30:42.239Z,74.18
2017-06-08T01:33:09.809Z,74.17
2017-06-08T01:35:37.346Z,74.33
2017-06-08T01:38:04.918Z,74.35
2017-06-08T01:40:32.449Z,74.86
2017-06-08T01:43:00.005Z,74.82
2017-06-08T01:45:27.604Z,74.35
2017-06-08T01:47:55.138Z,75.37
2017-06-08T01:50:22.710Z,77.29
2017-06-08T01:52:50.290Z,79.19
2017-06-08T01:55:17.829Z,80.76
2017-06-08T01:57:45.363Z,81.68
2017-06-08T02:00:13.186Z,81.98
2017-06-08T02:02:40.742Z,82.26
2017-06-08T02:05:08.273Z,82.05
2017-06-08T02:07:35.889Z,81.51
2017-06-08T02:10:03.432Z,82.86
2017-06-08T02:12:30.986Z,83.30
2017-06-08T02:14:58.583Z,83.36
2017-06-08T02:17:26.126Z,83.21
2017-06-08T02:19:53.666Z,83.07
2017-06-08T02:22:21.246Z,82.76
2017-06-08T02:24:48.827Z,82.58
2017-06-08T02:27:16.374Z,83.45
2017-06-08T02:29:43.950Z,83.11
2017-06-08T02:32:11.530Z,83.17
2017-06-08T02:34:39.075Z,83.19
2017-06-08T02:37:06.639Z,83.47
2017-06-08T02:39:34.230Z,83.38
2017-06-08T02:42:01.780Z,83.50
2017-06-08T02:44:29.319Z,83.65
2017-06-08T02:46:56.897Z,83.80
2017-06-08T02:49:24.441Z,82.92
2017-06-08T02:51:51.979Z,82.46
2017-06-08T02:54:19.566Z,82.66
2017-06-08T02:56:47.103Z,82.21
2017-06-08T02:59:14.643Z,80.27
2017-06-08T03:01:42.216Z,79.91
2017-06-08T03:04:09.757Z,78.74
2017-06-08T03:06:37.284Z,78.38
2017-06-08T03:09:04.909Z,78.51
2017-06-08T03:11:32.459Z,77.92
2017-06-08T03:14:00.005Z,77.97
2017-06-08T03:16:27.584Z,78.12
2017-06-08T03:18:55.122Z,77.72
2017-06-08T03:21:22.662Z,77.65
2017-06-08T03:23:50.257Z,77.63
2017-06-08T03:26:17.792Z,77.12
2017-06-08T03:28:45.337Z,77.27
2017-06-08T03:31:12.910Z,77.23
2017-06-08T03:33:40.462Z,77.72
2017-06-08T03:36:08.001Z,77.87
2017-06-08T03:38:35.595Z,77.28
2017-06-08T03:41:03.130Z,76.96
2017-06-08T03:43:30.684Z,76.32
2017-06-08T03:45:58.269Z,76.31
2017-06-08T03:48:25.815Z,76.41
2017-06-08T03:50:53.361Z,76.51
2017-06-08T03:53:20.944Z,78.01
2017-06-08T03:55:48.537Z,76.75
2017-06-08T03:58:16.099Z,76.71
2017-06-08T04:00:43.674Z,77.44
2017-06-08T04:03:11.243Z,76.29
2017-06-08T04:05:38.787Z,76.62
2017-06-08T04:08:06.370Z,76.96
2017-06-08T04:10:33.910Z,76.11
2017-06-08T04:13:01.450Z,75.21
2017-06-08T04:15:29.022Z,74.80
2017-06-08T04:17:56.559Z,74.92
2017-06-08T04:20:24.098Z,75.47
2017-06-08T04:22:51.685Z,75.12
2017-06-08T04:25:19.226Z,74.74
2017-06-08T04:27:46.769Z,74.91
2017-06-08T04:30:14.956Z,75.37
2017-06-08T04:32:42.502Z,74.57
2017-06-08T04:35:10.041Z,74.71
2017-06-08T04:37:37.647Z,74.02
2017-06-08T04:40:05.201Z,73.96
2017-06-08T04:42:32.779Z,73.64
2017-06-08T04:45:00.352Z,73.99
2017-06-08T04:47:27.994Z,73.54
2017-06-08T04:49:55.537Z,73.58
2017-06-08T04:52:23.134Z,73.97
2017-06-08T04:54:50.674Z,73.59
2017-06-08T04:57:18.204Z,73.28
2017-06-08T04:59:45.778Z,73.61
2017-06-08T05:02:13.358Z,73.10
2017-06-08T05:04:40.903Z,72.75
2017-06-08T05:07:08.779Z,73.63
2017-06-08T05:09:36.355Z,73.68
2017-06-08T05:12:03.899Z,73.92
2017-06-08T05:14:31.442Z,74.18
2017-06-08T05:16:59.022Z,74.55
2017-06-08T05:19:26.563Z,74.21
2017-06-08T05:21:54.099Z,74.34
2017-06-08T05:24:21.701Z,73.91
2017-06-08T05:26:49.245Z,74.56
2017-06-08T05:29:16.779Z,75.42
2017-06-08T05:31:44.354Z,74.15
2017-06-08T05:34:11.893Z,74.57
2017-06-08T05:36:39.433Z,74.13
2017-06-08T05:39:07.014Z,74.78
2017-06-08T05:41:34.546Z,74.53
2017-06-08T05:44:02.087Z,74.46
2017-06-08T05:46:29.662Z,74.32
2017-06-08T05:48:57.199Z,75.31
2017-06-08T05:51:24.739Z,76.21
2017-06-08T05:53:52.304Z,75.96
2017-06-08T05:56:19.840Z,75.73
2017-06-08T05:58:47.375Z,75.97
2017-06-08T06:01:14.949Z,77.26
2017-06-08T06:03:42.477Z,76.34
2017-06-08T06:06:10.014Z,76.27
2017-06-08T06:08:37.607Z,76.91
2017-06-08T06:11:05.147Z,77.30
2017-06-08T06:13:32.679Z,77.35
2017-06-08T06:16:00.249Z,77.94
2017-06-08T06:18:27.787Z,75.99
2017-06-08T06:20:55.326Z,76.17
2017-06-08T06:23:22.903Z,74.35
2017-06-08T06:25:50.439Z,74.43
2017-06-08T06:28:18.294Z,75.11
2017-06-08T06:30:45.866Z,74.91
2017-06-08T06:33:13.402Z,75.21
2017-06-08T06:35:40.935Z,74.96
2017-06-08T06:38:08.498Z,75.41
2017-06-08T06:40:36.034Z,75.11
2017-06-08T06:43:03.561Z,74.85
2017-06-08T06:45:31.130Z,74.17
2017-06-08T06:47:58.661Z,74.76
2017-06-08T06:50:26.192Z,74.77
2017-06-08T06:52:53.759Z,74.01
2017-06-08T06:55:21.298Z,74.84
2017-06-08T06:57:48.834Z,75.69
2017-06-08T07:00:16.419Z,75.26
2017-06-08T07:02:43.950Z,74.85
2017-06-08T07:05:11.481Z,74.51
2017-06-08T07:07:39.048Z,74.11
2017-06-08T07:10:06.582Z,73.61
2017-06-08T07:12:34.122Z,74.14
2017-06-08T07:15:01.701Z,73.85
2017-06-08T07:17:29.235Z,73.90
2017-06-08T07:19:56.770Z,73.70
2017-06-08T07:22:24.338Z,73.50
2017-06-08T07:24:51.874Z,73.86
2017-06-08T07:27:19.406Z,73.91
2017-06-08T07:29:46.974Z,74.69
2017-06-08T07:32:14.537Z,74.29
2017-06-08T07:34:42.066Z,73.83
2017-06-08T07:37:09.621Z,73.45
2017-06-08T07:39:37.195Z,72.54
2017-06-08T07:42:04.732Z,72.36
2017-06-08T07:44:32.272Z,73.01
2017-06-08T07:46:59.837Z,73.45
2017-06-08T07:49:27.372Z,72.57
2017-06-08T07:51:54.907Z,71.80
2017-06-08T07:54:22.477Z,72.25
2017-06-08T07:56:50.026Z,72.58
2017-06-08T07:59:17.586Z,71.89
2017-06-08T08:01:56.865Z,71.89
2017-06-08T08:04:24.448Z,71.37
2017-06-08T08:06:51.984Z,72.52
2017-06-08T08:09:19.544Z,72.47
2017-06-08T08:11:47.086Z,71.73
2017-06-08T08:14:14.619Z,71.55
2017-06-08T08:16:42.201Z,70.78
2017-06-08T08:19:09.730Z,71.06
2017-06-08T08:21:37.269Z,72.01
2017-06-08T08:24:04.825Z,70.99
2017-06-08T08:26:32.361Z,71.80
2017-06-08T08:28:59.890Z,70.48
2017-06-08T08:31:27.464Z,71.31
2017-06-08T08:33:55.009Z,71.00
2017-06-08T08:36:22.553Z,70.65
2017-06-08T08:38:50.117Z,70.95
2017-06-08T08:41:17.647Z,70.99
2017-06-08T08:43:45.181Z,71.52
2017-06-08T08:46:12.752Z,70.83
2017-06-08T08:48:40.282Z,69.68
2017-06-08T08:51:07.878Z,70.31
2017-06-08T08:53:35.441Z,70.32
2017-06-08T08:56:02.976Z,71.20
2017-06-08T08:58:30.526Z,69.87
2017-06-08T09:00:58.103Z,69.51
2017-06-08T09:03:25.641Z,69.13
2017-06-08T09:05:53.172Z,69.61
2017-06-08T09:08:20.755Z,68.17
2017-06-08T09:10:48.289Z,69.29
2017-06-08T09:13:15.821Z,68.84
2017-06-08T09:15:43.394Z,68.98
2017-06-08T09:18:10.923Z,68.23
2017-06-08T09:20:38.469Z,68.09
2017-06-08T09:23:06.026Z,68.25
2017-06-08T09:25:33.560Z,66.78
2017-06-08T09:28:01.091Z,67.49
2017-06-08T09:30:28.654Z,68.61
2017-06-08T09:32:56.190Z,67.76
2017-06-08T09:35:23.728Z,67.50
2017-06-08T09:37:51.293Z,67.53
2017-06-08T09:40:18.832Z,67.82
2017-06-08T09:42:46.371Z,67.70
2017-06-08T09:45:14.003Z,67.10
2017-06-08T09:47:41.545Z,67.02
2017-06-08T09:50:09.112Z,66.01
2017-06-08T09:52:36.686Z,66.17
2017-06-08T09:55:04.219Z,67.07
2017-06-08T09:57:31.753Z,66.17
2017-06-08T09:59:59.338Z,66.81
2017-06-08T10:02:26.917Z,66.92
2017-06-08T10:04:54.449Z,66.92
2017-06-08T10:07:21.983Z,66.19
2017-06-08T10:09:49.548Z,65.63
2017-06-08T10:12:17.086Z,65.18
2017-06-08T10:14:44.630Z,65.34
2017-06-08T10:17:12.191Z,64.83
2017-06-08T10:19:39.726Z,65.87
2017-06-08T10:22:07.263Z,64.81
2017-06-08T10:24:34.845Z,65.13
2017-06-08T10:27:02.379Z,65.05
2017-06-08T10:29:29.918Z,65.53
2017-06-08T10:31:57.489Z,66.00
2017-06-08T10:34:25.020Z,64.64
2017-06-08T10:36:52.558Z,64.97
2017-06-08T10:39:20.125Z,65.38
2017-06-08T10:41:47.654Z,65.36
2017-06-08T10:44:15.255Z,65.36
2017-06-08T10:46:42.826Z,65.53
2017-06-08T10:49:10.354Z,64.92
2017-06-08T10:51:37.884Z,64.76
2017-06-08T10:54:05.454Z,64.80
2017-06-08T10:56:33.001Z,65.03
2017-06-08T10:59:00.533Z,63.96
2017-06-08T11:01:28.103Z,64.56
2017-06-08T11:03:55.946Z,64.24
2017-06-08T11:06:23.485Z,63.59
2017-06-08T11:08:51.054Z,64.62
2017-06-08T11:11:18.599Z,64.11
2017-06-08T11:13:46.130Z,63.96
2017-06-08T11:16:13.705Z,63.34
2017-06-08T11:18:41.230Z,63.40
2017-06-08T11:21:08.773Z,63.04
2017-06-08T11:23:36.342Z,62.47
2017-06-08T11:26:03.884Z,63.33
2017-06-08T11:28:31.419Z,63.18
2017-06-08T11:30:58.984Z,61.86
2017-06-08T11:33:26.537Z,60.96
2017-06-08T11:35:54.069Z,60.23
2017-06-08T11:38:21.641Z,59.53
2017-06-08T11:40:49.186Z,58.25
2017-06-08T11:43:16.723Z,59.86
2017-06-08T11:45:44.303Z,59.07
2017-06-08T11:48:11.835Z,58.86
2017-06-08T11:50:39.369Z,59.60
2017-06-08T11:53:06.981Z,59.80
2017-06-08T11:55:34.510Z,59.91
2017-06-08T11:58:02.096Z,58.39
2017-06-08T12:00:29.830Z,58.19
2017-06-08T12:02:57.363Z,57.75
2017-06-08T12:05:25.793Z,57.08
2017-06-08T12:07:53.479Z,55.15
2017-06-08T12:10:21.001Z,56.34
2017-06-08T12:12:48.531Z,55.75
2017-06-08T12:15:16.106Z,54.97
2017-06-08T12:17:43.651Z,55.06
2017-06-08T12:20:11.196Z,55.82
2017-06-08T12:22:39.531Z,56.18
2017-06-08T12:25:07.064Z,54.79
2017-06-08T12:27:34.602Z,55.67
2017-06-08T12:30:02.166Z,56.19
2017-06-08T12:32:29.781Z,56.30
2017-06-08T12:34:57.316Z,56.51
2017-06-08T12:37:24.922Z,56.59
2017-06-08T12:39:52.511Z,56.70
2017-06-08T12:42:20.051Z,57.52
2017-06-08T12:44:47.582Z,58.08
2017-06-08T12:47:15.142Z,57.36
2017-06-08T12:49:42.690Z,56.42
2017-06-08T12:52:10.225Z,56.66
2017-06-08T12:54:37.806Z,58.45
2017-06-08T12:57:05.342Z,58.14
2017-06-08T12:59:32.906Z,58.53
2017-06-08T13:02:00.473Z,58.91
2017-06-08T13:04:28.007Z,59.29
2017-06-08T13:06:55.545Z,58.97
2017-06-08T13:09:23.105Z,59.41
2017-06-08T13:11:50.642Z,59.97
2017-06-08T13:14:18.193Z,60.29
2017-06-08T13:16:45.782Z,61.01
2017-06-08T13:19:13.326Z,61.30
2017-06-08T13:21:40.867Z,61.46
2017-06-08T13:24:08.511Z,61.50
2017-06-08T13:26:36.050Z,61.64
2017-06-08T13:29:03.591Z,60.98
2017-06-08T13:31:31.174Z,59.68
2017-06-08T13:33:58.705Z,58.78
2017-06-08T13:36:26.232Z,57.45
2017-06-08T13:38:53.796Z,57.64
2017-06-08T13:41:21.333Z,57.88
2017-06-08T13:43:48.865Z,56.96
2017-06-08T13:46:16.433Z,57.31
2017-06-08T13:48:45.700Z,57.13
2017-06-08T13:51:13.291Z,56.34
2017-06-08T13:53:41.401Z,55.52
2017-06-08T13:56:08.928Z,56.67
2017-06-08T13:58:36.464Z,56.69
2017-06-08T14:01:04.050Z,55.93
2017-06-08T14:03:33.364Z,55.63
2017-06-08T14:06:01.526Z,56.03
2017-06-08T14:08:29.095Z,55.67
2017-06-08T14:10:56.651Z,54.36
2017-06-08T14:13:24.196Z,54.34
2017-06-08T14:15:51.787Z,54.33
2017-06-08T14:18:19.504Z,54.45
2017-06-08T14:20:47.042Z,54.81
2017-06-08T14:23:14.607Z,55.04
2017-06-08T14:25:42.133Z,54.93
2017-06-08T14:28:09.667Z,54.45
2017-06-08T14:30:37.649Z,54.58
2017-06-08T14:33:05.558Z,54.39
2017-06-08T14:35:33.209Z,53.84
2017-06-08T14:38:01.075Z,54.23
2017-06-08T14:40:28.625Z,55.77
2017-06-08T14:42:56.227Z,55.27
2017-06-08T14:45:23.794Z,55.14
2017-06-08T14:47:51.327Z,55.63
2017-06-08T14:50:18.859Z,55.07
2017-06-08T14:52:51.375Z,54.65
2017-06-08T14:55:18.962Z,55.87
2017-06-08T14:57:46.522Z,55.39
2017-06-08T15:00:14.250Z,55.57
2017-06-08T15:02:41.798Z,55.94
2017-06-08T15:05:09.323Z,55.43
2017-06-08T15:07:36.919Z,54.98
2017-06-08T15:10:04.475Z,54.91
2017-06-08T15:12:32.054Z,53.26
2017-06-08T15:14:59.634Z,53.30
2017-06-08T15:17:27.219Z,53.52
2017-06-08T15:19:54.750Z,53.55
2017-06-08T15:22:22.318Z,55.53
2017-06-08T15:24:50.121Z,53.50
2017-06-08T15:27:17.670Z,54.36
2017-06-08T15:29:45.246Z,54.18
2017-06-08T15:32:13.211Z,54.12
2017-06-08T15:34:40.894Z,53.65
2017-06-08T15:37:08.437Z,53.52
2017-06-08T15:39:36.009Z,54.17
2017-06-08T15:42:03.546Z,54.76
2017-06-08T15:44:31.086Z,54.88
2017-06-08T15:46:58.658Z,54.92
2017-06-08T15:49:26.977Z,54.59
2017-06-08T15:51:54.514Z,54.86
2017-06-08T15:54:22.102Z,55.35
2017-06-08T15:56:49.643Z,55.28
2017-06-08T15:59:17.184Z,56.24
2017-06-08T16:01:44.795Z,56.23
2017-06-08T16:04:12.335Z,55.31
2017-06-08T16:06:39.882Z,55.32
2017-06-08T16:09:07.460Z,56.20
2017-06-08T16:11:34.999Z,56.26
2017-06-08T16:14:03.088Z,55.98
2017-06-08T16:16:31.014Z,56.29
2017-06-08T16:18:58.862Z,56.35
2017-06-08T16:21:26.807Z,56.60
2017-06-08T16:23:54.381Z,56.63
2017-06-08T16:26:21.920Z,56.72
2017-06-08T16:28:49.476Z,56.33
2017-06-08T16:31:17.091Z,56.82
2017-06-08T16:33:44.622Z,56.27
2017-06-08T16:36:12.166Z,56.36
2017-06-08T16:38:39.751Z,56.33
2017-06-08T16:41:07.335Z,56.76
2017-06-08T16:43:34.879Z,56.59
2017-06-08T16:46:03.455Z,56.11
2017-06-08T16:48:37.238Z,55.86
2017-06-08T16:51:05.680Z,56.10
2017-06-08T16:53:34.977Z,55.87
2017-06-08T16:56:06.917Z,56.11
2017-06-08T16:58:37.808Z,56.54
2017-06-08T17:01:05.411Z,57.09
2017-06-08T17:03:34.128Z,57.43
2017-06-08T17:06:01.695Z,56.95
2017-06-08T17:08:29.307Z,57.61
2017-06-08T17:10:56.850Z,58.24
2017-06-08T17:13:24.391Z,58.26
2017-06-08T17:15:53.091Z,57.33
2017-06-08T17:18:21.098Z,58.10
2017-06-08T17:20:48.725Z,58.02
2017-06-08T17:23:16.719Z,59.05
2017-06-08T17:25:44.351Z,59.37
2017-06-08T17:28:11.994Z,59.17
2017-06-08T17:30:39.710Z,59.30
2017-06-08T17:33:07.542Z,59.68
2017-06-08T17:35:35.083Z,59.60
2017-06-08T17:38:02.677Z,59.33
2017-06-08T17:40:30.226Z,59.23
2017-06-08T17:42:57.776Z,59.49
2017-06-08T17:45:32.068Z,59.43
2017-06-08T17:48:06.252Z,59.64
2017-06-08T17:50:34.773Z,59.45
2017-06-08T17:53:05.037Z,59.48
2017-06-08T17:55:34.783Z,59.51
2017-06-08T17:58:02.497Z,59.61
2017-06-08T18:00:30.540Z,59.31
2017-06-08T18:02:58.081Z,59.65
2017-06-08T18:05:25.653Z,59.17
2017-06-08T18:07:53.243Z,59.12
2017-06-08T18:10:20.890Z,58.75
2017-06-08T18:12:48.661Z,58.44
2017-06-08T18:15:17.125Z,59.75
2017-06-08T18:17:44.726Z,59.30
2017-06-08T18:20:12.505Z,60.37
2017-06-08T18:22:40.107Z,60.79
2017-06-08T18:25:07.660Z,60.62
2017-06-08T18:27:35.214Z,60.72
2017-06-08T18:30:10.538Z,60.59
2017-06-08T18:32:38.127Z,60.54
2017-06-08T18:35:05.678Z,60.71
2017-06-08T18:37:33.238Z,60.12
2017-06-08T18:40:00.842Z,61.12
2017-06-08T18:42:28.390Z,61.89
2017-06-08T18:44:55.932Z,61.38
2017-06-08T18:47:23.510Z,61.64
2017-06-08T18:49:51.056Z,61.80
2017-06-08T18:52:18.589Z,61.86
2017-06-08T18:54:46.165Z,62.11
2017-06-08T18:57:13.703Z,61.91
2017-06-08T18:59:41.246Z,62.28
2017-06-08T19:02:08.831Z,62.13
2017-06-08T19:04:36.388Z,61.86
2017-06-08T19:07:03.933Z,62.29
2017-06-08T19:09:31.514Z,62.74
2017-06-08T19:12:05.076Z,62.03
2017-06-08T19:14:32.743Z,62.05
2017-06-08T19:17:04.650Z,62.71
2017-06-08T19:19:34.773Z,62.66
2017-06-08T19:22:03.841Z,62.43
2017-06-08T19:24:34.991Z,61.96
2017-06-08T19:27:02.888Z,62.12
2017-06-08T19:29:38.447Z,61.81
2017-06-08T19:32:14.209Z,61.28
2017-06-08T19:37:28.694Z,61.01
2017-06-08T19:40:06.101Z,61.52
2017-06-08T19:42:46.072Z,61.51
2017-06-08T19:45:16.852Z,61.23
2017-06-08T19:47:51.381Z,60.79
2017-06-08T19:50:20.528Z,62.34
2017-06-08T19:52:52.330Z,61.35
2017-06-08T19:55:35.766Z,61.85
2017-06-08T19:58:15.483Z,63.61
2017-06-08T20:00:44.401Z,63.39
2017-06-08T20:03:12.005Z,63.30
2017-06-08T20:05:39.672Z,63.42
2017-06-08T20:08:07.299Z,63.12
2017-06-08T20:10:34.837Z,63.26
2017-06-08T20:13:02.591Z,63.20
2017-06-08T20:15:30.218Z,62.85
2017-06-08T20:17:57.812Z,63.01
2017-06-08T20:20:25.690Z,63.35
2017-06-08T20:22:54.214Z,63.78
2017-06-08T20:25:21.756Z,63.41
2017-06-08T20:27:49.304Z,63.14
2017-06-08T20:30:16.888Z,63.51
2017-06-08T20:32:44.454Z,64.14
2017-06-08T20:35:12.000Z,63.15
2017-06-08T20:37:39.584Z,62.42
2017-06-08T20:40:07.150Z,62.68
2017-06-08T20:42:34.698Z,62.89
2017-06-08T20:45:02.287Z,63.41
2017-06-08T20:47:29.840Z,64.21
2017-06-08T20:49:57.382Z,63.65
2017-06-08T20:52:25.359Z,63.23
2017-06-08T20:54:52.914Z,62.64
2017-06-08T20:57:20.455Z,62.92
2017-06-08T20:59:48.034Z,62.69
2017-06-08T21:02:15.606Z,62.84
2017-06-08T21:04:43.157Z,62.65
2017-06-08T21:07:10.692Z,62.30
2017-06-08T21:09:38.243Z,62.02
2017-06-08T21:12:05.755Z,62.78
2017-06-08T21:14:33.295Z,63.04
2017-06-08T21:17:00.860Z,62.40
2017-06-08T21:19:28.392Z,62.74
2017-06-08T21:21:55.926Z,62.24
2017-06-08T21:24:23.501Z,63.08
2017-06-08T21:26:51.062Z,63.61
2017-06-08T21:29:18.611Z,63.97
2017-06-08T21:31:46.213Z,63.61
2017-06-08T21:34:13.714Z,64.20
2017-06-08T21:36:41.270Z,63.78
2017-06-08T21:39:08.836Z,63.78
2017-06-08T21:41:36.393Z,63.95
2017-06-08T21:44:03.922Z,63.65
2017-06-08T21:46:31.498Z,63.34
2017-06-08T21:48:59.021Z,63.74
2017-06-08T21:51:26.557Z,63.44
2017-06-08T21:53:54.134Z,63.52
2017-06-08T21:56:21.669Z,63.22
2017-06-08T21:58:49.210Z,63.24
2017-06-08T22:01:16.799Z,62.81
2017-06-08T22:03:44.336Z,62.91
2017-06-08T22:06:11.950Z,62.89
2017-06-08T22:08:39.534Z,63.16
2017-06-08T22:11:07.065Z,62.36
2017-06-08T22:13:34.589Z,61.66
2017-06-08T22:16:02.166Z,61.49
2017-06-08T22:18:29.712Z,61.23
2017-06-08T22:20:57.260Z,60.69
2017-06-08T22:23:24.831Z,60.94
2017-06-08T22:25:52.367Z,61.69
2017-06-08T22:28:20.145Z,62.10
2017-06-08T22:30:47.710Z,62.22
2017-06-08T22:33:15.244Z,62.22
2017-06-08T22:35:42.801Z,62.19
2017-06-08T22:38:10.381Z,62.49
2017-06-08T22:40:37.914Z,62.67
2017-06-08T22:43:05.462Z,61.87
2017-06-08T22:45:33.043Z,61.67
2017-06-08T22:48:00.578Z,61.12
2017-06-08T22:50:28.155Z,61.21
2017-06-08T22:52:55.754Z,60.88
2017-06-08T22:55:23.290Z,61.37
2017-06-08T22:57:50.836Z,61.17
2017-06-08T23:00:18.418Z,61.26
2017-06-08T23:02:45.955Z,60.93
2017-06-08T23:05:13.498Z,61.28
2017-06-08T23:07:41.218Z,61.53
2017-06-08T23:10:08.799Z,61.78
2017-06-08T23:12:36.342Z,61.96
2017-06-08T23:15:03.963Z,61.77
2017-06-08T23:17:31.510Z,61.99
2017-06-08T23:19:59.066Z,62.34
2017-06-08T23:22:26.795Z,62.32
2017-06-08T23:24:54.359Z,62.37
2017-06-08T23:27:21.925Z,62.37
2017-06-08T23:29:49.516Z,62.35
2017-06-08T23:32:17.089Z,61.75
2017-06-08T23:34:44.618Z,62.10
2017-06-08T23:37:12.167Z,62.07
2017-06-08T23:39:39.736Z,62.17
2017-06-08T23:42:07.286Z,61.60
2017-06-08T23:44:34.833Z,61.55
2017-06-08T23:47:02.417Z,62.14
2017-06-08T23:49:29.943Z,61.56
2017-06-08T23:51:57.473Z,61.61
2017-06-08T23:54:25.063Z,62.23
2017-06-08T23:56:52.595Z,62.79
2017-06-08T23:59:20.126Z,62.88
